Mountain City, Tennessee
Current Conditions -  °F | °C
As of 1:15 PM on Thursday 30 Oct 2014 (Local Time) from KVJI Reporting Station
Broken Clouds Broken Clouds  
Wind Chill: 53°   Ceiling: 3000
Heat Index: 53°   Visibility: 10mi
Dew Point: 41°   Wind: 3mph
Humidity: 65%   Direction: 280°W
Pressure: 30.08"   Gusts: NA
Location:  36.47°N, 81.8°W
Report Text: KVJI 301715Z AUTO 28003KT 10SM BKN030 12/05 A3008 RMK AO2 T01150051
Loading
Personal Weather Stations






























Interactive Weather Map
Tropical Storm Tracking
New forecast layout! Learn more

10-Day Weather Forecast

Advertisements
Track Severe Weather on mobile